createdAt,value
2023-01-26T00:00:19.304Z,4.38
2023-01-26T00:01:21.810Z,4.57
2023-01-26T00:02:24.327Z,4.22
2023-01-26T00:03:26.766Z,4.66
2023-01-26T00:04:29.283Z,4.42
2023-01-26T00:05:31.553Z,4.52
2023-01-26T00:06:34.054Z,4.65
2023-01-26T00:07:36.301Z,4.92
2023-01-26T00:08:38.566Z,4.52
2023-01-26T00:09:40.881Z,5.02
2023-01-26T00:10:43.332Z,5.08
2023-01-26T00:11:45.968Z,4.78
2023-01-26T00:12:48.572Z,5.22
2023-01-26T00:13:51.395Z,4.91
2023-01-26T00:14:54.036Z,5.96
2023-01-26T00:15:56.607Z,7.28
2023-01-26T00:16:59.137Z,8.26
2023-01-26T00:18:01.818Z,8.62
2023-01-26T00:19:04.491Z,7.52
2023-01-26T00:20:07.101Z,7.58
2023-01-26T00:21:09.558Z,7.81
2023-01-26T00:22:12.331Z,6.60
2023-01-26T00:23:14.854Z,6.54
2023-01-26T00:24:18.017Z,6.67
2023-01-26T00:25:20.524Z,6.94
2023-01-26T00:26:23.168Z,7.47
2023-01-26T00:27:25.604Z,7.75
2023-01-26T00:28:28.079Z,7.87
2023-01-26T00:29:30.879Z,8.15
2023-01-26T00:30:33.617Z,7.71
2023-01-26T00:31:36.247Z,7.92
2023-01-26T00:32:38.703Z,8.28
2023-01-26T00:33:41.313Z,8.90
2023-01-26T00:34:44.115Z,8.78
2023-01-26T00:35:46.408Z,8.58
2023-01-26T00:36:48.663Z,8.48
2023-01-26T00:37:51.051Z,8.78
2023-01-26T00:38:53.413Z,8.91
2023-01-26T00:39:55.812Z,8.73
2023-01-26T00:40:58.029Z,8.79
2023-01-26T00:42:00.374Z,9.61
2023-01-26T00:43:02.653Z,9.51
2023-01-26T00:44:05.179Z,9.57
2023-01-26T00:45:07.908Z,9.34
2023-01-26T00:46:10.485Z,9.40
2023-01-26T00:47:13.143Z,9.28
2023-01-26T00:48:15.658Z,8.88
2023-01-26T00:49:18.189Z,9.23
2023-01-26T00:50:21.008Z,9.10
2023-01-26T00:51:23.598Z,9.73
2023-01-26T00:52:26.163Z,9.06
2023-01-26T00:53:28.608Z,8.34
2023-01-26T00:54:31.056Z,7.82
2023-01-26T00:55:33.650Z,8.24
2023-01-26T00:56:36.198Z,8.35
2023-01-26T00:57:38.500Z,8.66
2023-01-26T00:58:41.042Z,7.60
2023-01-26T00:59:43.248Z,8.07
2023-01-26T01:00:45.800Z,7.55
2023-01-26T01:01:48.107Z,7.55
2023-01-26T01:02:50.335Z,8.05
2023-01-26T01:03:52.660Z,7.67
2023-01-26T01:04:55.025Z,8.07
2023-01-26T01:05:57.586Z,7.81
2023-01-26T01:06:59.932Z,7.75
2023-01-26T01:08:02.223Z,7.77
2023-01-26T01:09:04.504Z,7.70
2023-01-26T01:10:06.835Z,8.22
2023-01-26T01:11:09.363Z,7.75
2023-01-26T01:12:11.702Z,7.66
2023-01-26T01:13:13.964Z,7.97
2023-01-26T01:14:16.239Z,7.28
2023-01-26T01:15:18.491Z,7.40
2023-01-26T01:16:20.909Z,7.54
2023-01-26T01:17:24.214Z,7.30
2023-01-26T01:18:26.436Z,6.92
2023-01-26T01:19:28.790Z,7.45
2023-01-26T01:20:31.004Z,7.38
2023-01-26T01:21:33.313Z,7.75
2023-01-26T01:22:35.615Z,7.45
2023-01-26T01:23:37.877Z,7.05
2023-01-26T01:24:40.163Z,7.28
2023-01-26T01:25:42.440Z,7.03
2023-01-26T01:26:44.850Z,6.62
2023-01-26T01:27:47.409Z,7.06
2023-01-26T01:28:49.824Z,7.12
2023-01-26T01:29:52.117Z,6.83
2023-01-26T01:30:54.535Z,7.24
2023-01-26T01:31:57.228Z,7.05
2023-01-26T01:32:59.616Z,7.48
2023-01-26T01:34:02.065Z,6.55
2023-01-26T01:35:04.309Z,7.13
2023-01-26T01:36:06.897Z,6.63
2023-01-26T01:37:09.529Z,7.15
2023-01-26T01:38:11.822Z,7.05
2023-01-26T01:39:14.052Z,6.87
2023-01-26T01:40:16.376Z,6.67
2023-01-26T01:41:18.769Z,6.88
2023-01-26T01:42:21.504Z,6.37
2023-01-26T01:43:23.745Z,6.45
2023-01-26T01:44:26.005Z,6.33
2023-01-26T01:45:28.574Z,6.29
2023-01-26T01:46:30.919Z,6.73
2023-01-26T01:47:33.347Z,6.21
2023-01-26T01:48:35.707Z,6.54
2023-01-26T01:49:37.917Z,6.20
2023-01-26T01:50:40.467Z,6.36
2023-01-26T01:51:42.758Z,6.03
2023-01-26T01:52:45.172Z,5.97
2023-01-26T01:53:47.526Z,5.96
2023-01-26T01:54:49.892Z,6.43
2023-01-26T01:55:52.173Z,6.33
2023-01-26T01:56:54.400Z,6.42
2023-01-26T01:57:56.874Z,6.28
2023-01-26T01:58:59.145Z,6.06
2023-01-26T02:00:01.536Z,5.83
2023-01-26T02:01:04.251Z,6.24
2023-01-26T02:02:06.891Z,6.65
2023-01-26T02:03:09.404Z,6.42
2023-01-26T02:04:12.303Z,6.46
2023-01-26T02:05:14.589Z,6.12
2023-01-26T02:06:16.891Z,5.88
2023-01-26T02:07:19.163Z,5.62
2023-01-26T02:08:21.593Z,5.81
2023-01-26T02:09:23.820Z,6.04
2023-01-26T02:10:26.229Z,5.78
2023-01-26T02:11:28.412Z,5.84
2023-01-26T02:12:30.770Z,6.24
2023-01-26T02:13:33.038Z,5.72
2023-01-26T02:14:35.228Z,6.03
2023-01-26T02:15:37.706Z,6.11
2023-01-26T02:16:40.147Z,5.98
2023-01-26T02:17:42.640Z,5.91
2023-01-26T02:18:44.957Z,5.67
2023-01-26T02:19:47.261Z,6.35
2023-01-26T02:20:49.518Z,5.42
2023-01-26T02:21:51.866Z,5.92
2023-01-26T02:22:54.127Z,5.86
2023-01-26T02:23:56.594Z,5.82
2023-01-26T02:24:59.230Z,5.65
2023-01-26T02:26:01.444Z,5.68
2023-01-26T02:27:03.816Z,5.77
2023-01-26T02:28:06.009Z,5.42
2023-01-26T02:29:08.394Z,6.33
2023-01-26T02:30:11.004Z,5.78
2023-01-26T02:31:13.559Z,5.89
2023-01-26T02:32:15.815Z,6.76
2023-01-26T02:33:18.285Z,5.92
2023-01-26T02:34:20.543Z,6.55
2023-01-26T02:35:22.796Z,6.15
2023-01-26T02:36:25.197Z,6.05
2023-01-26T02:37:27.512Z,6.22
2023-01-26T02:38:29.711Z,6.50
2023-01-26T02:39:31.952Z,6.38
2023-01-26T02:40:34.301Z,6.52
2023-01-26T02:41:36.465Z,6.29
2023-01-26T02:42:38.759Z,6.12
2023-01-26T02:43:41.031Z,6.21
2023-01-26T02:44:43.475Z,6.33
2023-01-26T02:45:45.693Z,6.63
2023-01-26T02:46:48.048Z,6.31
2023-01-26T02:47:50.401Z,6.49
2023-01-26T02:48:52.717Z,6.65
2023-01-26T02:49:55.351Z,6.90
2023-01-26T02:50:57.752Z,6.68
2023-01-26T02:52:00.245Z,7.37
2023-01-26T02:53:02.777Z,7.12
2023-01-26T02:54:04.986Z,6.97
2023-01-26T02:55:07.312Z,7.20
2023-01-26T02:56:09.668Z,6.62
2023-01-26T02:57:11.987Z,6.54
2023-01-26T02:58:14.395Z,6.53
2023-01-26T02:59:16.622Z,6.58
2023-01-26T03:00:19.147Z,6.78
2023-01-26T03:01:21.381Z,6.72
2023-01-26T03:02:23.784Z,7.03
2023-01-26T03:03:26.046Z,7.05
2023-01-26T03:04:28.645Z,7.03
2023-01-26T03:05:31.168Z,7.25
2023-01-26T03:06:33.555Z,6.80
2023-01-26T03:07:35.858Z,6.72
2023-01-26T03:08:38.136Z,6.50
2023-01-26T03:09:40.434Z,7.20
2023-01-26T03:10:43.240Z,6.92
2023-01-26T03:11:45.455Z,6.82
2023-01-26T03:12:48.080Z,7.08
2023-01-26T03:13:50.368Z,7.18
2023-01-26T03:14:52.671Z,7.26
2023-01-26T03:15:55.155Z,7.27
2023-01-26T03:16:57.505Z,7.62
2023-01-26T03:17:59.729Z,7.58
2023-01-26T03:19:02.266Z,7.51
2023-01-26T03:20:04.621Z,7.35
2023-01-26T03:21:06.861Z,7.63
2023-01-26T03:22:09.213Z,7.82
2023-01-26T03:23:11.484Z,8.18
2023-01-26T03:24:14.041Z,7.53
2023-01-26T03:25:16.368Z,7.68
2023-01-26T03:26:18.627Z,7.41
2023-01-26T03:27:20.778Z,7.75
2023-01-26T03:28:23.205Z,7.73
2023-01-26T03:29:25.539Z,7.72
2023-01-26T03:30:27.763Z,7.97
2023-01-26T03:31:30.086Z,7.54
2023-01-26T03:32:32.711Z,7.64
2023-01-26T03:33:34.953Z,7.51
2023-01-26T03:34:37.482Z,7.67
2023-01-26T03:35:39.801Z,7.48
2023-01-26T03:36:42.471Z,7.02
2023-01-26T03:37:45.092Z,7.06
2023-01-26T03:38:47.677Z,6.42
2023-01-26T03:39:50.345Z,6.38
2023-01-26T03:40:52.555Z,6.64
2023-01-26T03:41:55.045Z,6.50
2023-01-26T03:42:57.288Z,6.44
2023-01-26T03:43:59.901Z,6.03
2023-01-26T03:45:02.147Z,6.52
2023-01-26T03:46:04.740Z,6.58
2023-01-26T03:47:07.276Z,6.67
2023-01-26T03:48:09.704Z,6.40
2023-01-26T03:49:11.924Z,6.44
2023-01-26T03:50:14.153Z,6.20
2023-01-26T03:51:16.357Z,6.66
2023-01-26T03:52:18.933Z,6.54
2023-01-26T03:53:21.527Z,7.09
2023-01-26T03:54:23.845Z,5.94
2023-01-26T03:55:26.117Z,6.92
2023-01-26T03:56:28.312Z,7.22
2023-01-26T03:57:30.878Z,6.56
2023-01-26T03:58:33.419Z,6.67
2023-01-26T03:59:36.102Z,6.78
2023-01-26T04:00:38.366Z,6.66
2023-01-26T04:01:40.919Z,6.78
2023-01-26T04:02:43.479Z,6.36
2023-01-26T04:03:45.685Z,6.58
2023-01-26T04:04:48.057Z,6.58
2023-01-26T04:05:50.330Z,6.90
2023-01-26T04:06:52.620Z,6.76
2023-01-26T04:07:54.993Z,7.11
2023-01-26T04:08:57.262Z,6.54
2023-01-26T04:09:59.521Z,7.02
2023-01-26T04:11:01.914Z,6.51
2023-01-26T04:12:04.229Z,7.56
2023-01-26T04:13:06.507Z,7.87
2023-01-26T04:14:08.816Z,7.58
2023-01-26T04:15:11.085Z,7.13
2023-01-26T04:16:13.826Z,7.46
2023-01-26T04:17:16.169Z,7.88
2023-01-26T04:18:18.619Z,7.71
2023-01-26T04:19:20.968Z,7.57
2023-01-26T04:20:23.639Z,8.41
2023-01-26T04:21:25.854Z,8.81
2023-01-26T04:22:28.268Z,8.25
2023-01-26T04:23:30.803Z,8.19
2023-01-26T04:24:33.085Z,8.49
2023-01-26T04:25:35.532Z,8.28
2023-01-26T04:26:37.817Z,8.72
2023-01-26T04:27:40.032Z,7.83
2023-01-26T04:28:42.813Z,8.74
2023-01-26T04:29:45.333Z,8.44
2023-01-26T04:30:47.908Z,8.20
2023-01-26T04:31:50.772Z,8.31
2023-01-26T04:32:53.111Z,8.09
2023-01-26T04:33:55.763Z,8.97
2023-01-26T04:34:58.095Z,8.62
2023-01-26T04:36:00.284Z,8.67
2023-01-26T04:37:02.658Z,8.78
2023-01-26T04:38:04.877Z,8.64
2023-01-26T04:39:07.105Z,8.31
2023-01-26T04:40:09.639Z,8.79
2023-01-26T04:41:12.146Z,8.95
2023-01-26T04:42:14.598Z,8.93
2023-01-26T04:43:16.857Z,9.55
2023-01-26T04:44:19.136Z,8.93
2023-01-26T04:45:21.665Z,9.04
2023-01-26T04:46:24.257Z,8.80
2023-01-26T04:47:29.068Z,9.45
2023-01-26T04:48:30.498Z,8.71
2023-01-26T04:49:32.836Z,8.52
2023-01-26T04:50:35.215Z,9.73
2023-01-26T04:51:37.468Z,8.70
2023-01-26T04:52:39.849Z,9.23
2023-01-26T04:53:42.076Z,8.81
2023-01-26T04:54:44.326Z,9.03
2023-01-26T04:55:46.656Z,8.85
2023-01-26T04:56:48.831Z,8.41
2023-01-26T04:57:51.060Z,8.57
2023-01-26T04:58:53.584Z,8.82
2023-01-26T04:59:56.496Z,8.48
2023-01-26T05:00:58.889Z,8.89
2023-01-26T05:02:01.117Z,8.65
2023-01-26T05:03:03.273Z,8.88
2023-01-26T05:04:05.586Z,9.33
2023-01-26T05:05:07.995Z,8.33
2023-01-26T05:06:10.247Z,8.54
2023-01-26T05:07:12.419Z,8.66
2023-01-26T05:08:14.788Z,8.92
2023-01-26T05:09:17.092Z,8.44
2023-01-26T05:10:19.533Z,9.38
2023-01-26T05:11:22.112Z,8.92
2023-01-26T05:12:24.586Z,8.74
2023-01-26T05:13:27.144Z,8.73
2023-01-26T05:14:29.638Z,8.52
2023-01-26T05:15:32.338Z,8.35
2023-01-26T05:16:34.909Z,8.49
2023-01-26T05:17:37.668Z,8.25
2023-01-26T05:18:40.280Z,8.68
2023-01-26T05:19:42.757Z,7.79
2023-01-26T05:20:45.484Z,7.60
2023-01-26T05:21:47.871Z,8.05
2023-01-26T05:22:50.145Z,7.70
2023-01-26T05:23:52.723Z,8.22
2023-01-26T05:24:55.388Z,7.63
2023-01-26T05:25:57.953Z,7.71
2023-01-26T05:27:00.198Z,8.33
2023-01-26T05:28:02.634Z,8.55
2023-01-26T05:29:05.105Z,8.17
2023-01-26T05:30:07.461Z,9.03
2023-01-26T05:31:09.943Z,8.82
2023-01-26T05:32:12.340Z,8.75
2023-01-26T05:33:14.969Z,9.11
2023-01-26T05:34:17.264Z,9.13
2023-01-26T05:35:19.716Z,9.54
2023-01-26T05:36:22.095Z,9.23
2023-01-26T05:37:24.395Z,9.03
2023-01-26T05:38:26.698Z,9.13
2023-01-26T05:39:28.997Z,9.58
2023-01-26T05:40:31.297Z,9.44
2023-01-26T05:41:33.749Z,10.33
2023-01-26T05:42:36.122Z,9.82
2023-01-26T05:43:38.369Z,10.48
2023-01-26T05:44:40.705Z,10.17
2023-01-26T05:45:43.048Z,10.64
2023-01-26T05:46:45.567Z,10.87
2023-01-26T05:47:48.190Z,10.72
2023-01-26T05:48:50.504Z,10.78
2023-01-26T05:49:52.837Z,10.38
2023-01-26T05:50:55.534Z,11.35
2023-01-26T05:51:58.176Z,12.37
2023-01-26T05:53:00.529Z,11.22
2023-01-26T05:54:02.922Z,11.69
2023-01-26T05:55:05.679Z,11.48
2023-01-26T05:56:08.281Z,11.41
2023-01-26T05:57:11.139Z,11.18
2023-01-26T05:58:13.382Z,11.40
2023-01-26T05:59:15.816Z,11.03
2023-01-26T06:00:18.397Z,11.20
2023-01-26T06:01:20.635Z,11.12
2023-01-26T06:02:23.060Z,11.90
2023-01-26T06:03:25.306Z,11.70
2023-01-26T06:04:27.803Z,11.47
2023-01-26T06:05:30.395Z,10.98
2023-01-26T06:06:32.921Z,11.76
2023-01-26T06:07:35.421Z,11.35
2023-01-26T06:08:37.757Z,11.77
2023-01-26T06:09:40.001Z,12.34
2023-01-26T06:10:42.626Z,11.75
2023-01-26T06:11:45.303Z,11.58
2023-01-26T06:12:47.697Z,11.57
2023-01-26T06:13:49.906Z,12.01
2023-01-26T06:14:52.603Z,11.35
2023-01-26T06:15:55.517Z,11.67
2023-01-26T06:16:57.791Z,11.86
2023-01-26T06:18:00.239Z,11.76
2023-01-26T06:19:02.536Z,11.89
2023-01-26T06:20:05.129Z,12.45
2023-01-26T06:21:07.447Z,12.23
2023-01-26T06:22:09.985Z,13.08
2023-01-26T06:23:12.517Z,13.42
2023-01-26T06:24:15.225Z,13.44
2023-01-26T06:25:17.898Z,13.28
2023-01-26T06:26:20.170Z,13.58
2023-01-26T06:27:22.574Z,13.97
2023-01-26T06:28:25.469Z,13.49
2023-01-26T06:29:27.987Z,13.81
2023-01-26T06:30:30.458Z,13.83
2023-01-26T06:31:33.032Z,12.86
2023-01-26T06:32:35.390Z,13.10
2023-01-26T06:33:37.821Z,13.27
2023-01-26T06:34:40.050Z,12.51
2023-01-26T06:35:42.323Z,12.43
2023-01-26T06:36:44.835Z,12.51
2023-01-26T06:37:47.078Z,12.61
2023-01-26T06:38:49.409Z,11.87
2023-01-26T06:39:51.620Z,10.97
2023-01-26T06:40:53.864Z,10.61
2023-01-26T06:41:56.123Z,10.59
2023-01-26T06:42:58.818Z,9.97
2023-01-26T06:44:01.485Z,9.45
2023-01-26T06:45:03.840Z,10.52
2023-01-26T06:46:06.124Z,10.54
2023-01-26T06:47:08.308Z,8.98
2023-01-26T06:48:10.779Z,9.63
2023-01-26T06:49:13.603Z,9.46
2023-01-26T06:50:16.136Z,10.18
2023-01-26T06:51:18.579Z,10.18
2023-01-26T06:52:20.842Z,9.93
2023-01-26T06:53:23.302Z,9.94
2023-01-26T06:54:25.989Z,9.79
2023-01-26T06:55:28.444Z,9.20
2023-01-26T06:56:31.065Z,8.92
2023-01-26T06:57:33.718Z,9.52
2023-01-26T06:58:35.945Z,9.42
2023-01-26T06:59:46.761Z,9.04
2023-01-26T07:00:49.492Z,8.40
2023-01-26T07:01:52.606Z,8.01
2023-01-26T07:02:55.284Z,8.58
2023-01-26T07:03:58.266Z,7.92
2023-01-26T07:05:01.563Z,7.97
2023-01-26T07:06:04.315Z,7.81
2023-01-26T07:07:07.165Z,7.77
2023-01-26T07:08:09.954Z,8.22
2023-01-26T07:09:12.635Z,7.64
2023-01-26T07:10:15.756Z,7.35
2023-01-26T07:11:18.683Z,7.14
2023-01-26T07:12:21.669Z,6.93
2023-01-26T07:13:24.539Z,6.45
2023-01-26T07:14:27.163Z,6.55
2023-01-26T07:15:30.455Z,6.85
2023-01-26T07:16:33.984Z,6.38
2023-01-26T07:17:36.955Z,6.65
2023-01-26T07:18:39.945Z,6.43
2023-01-26T07:19:43.010Z,6.35
2023-01-26T07:20:46.517Z,6.22
2023-01-26T07:21:49.384Z,5.86
2023-01-26T07:22:52.155Z,6.06
2023-01-26T07:23:54.947Z,5.95
2023-01-26T07:24:57.917Z,5.85
2023-01-26T07:26:01.078Z,6.06
2023-01-26T07:27:04.467Z,6.21
2023-01-26T07:28:07.550Z,5.98
2023-01-26T07:29:10.331Z,5.81
2023-01-26T07:30:13.260Z,6.22
2023-01-26T07:31:16.851Z,6.35
2023-01-26T07:32:20.067Z,6.06
2023-01-26T07:33:23.099Z,6.58
2023-01-26T07:34:25.923Z,6.05
2023-01-26T07:35:28.610Z,6.12
2023-01-26T07:36:32.027Z,5.98
2023-01-26T07:37:35.054Z,6.11
2023-01-26T07:38:38.162Z,6.18
2023-01-26T07:39:40.800Z,5.84
2023-01-26T07:40:43.996Z,6.28
2023-01-26T07:41:47.301Z,5.81
2023-01-26T07:42:50.257Z,6.20
2023-01-26T07:43:52.940Z,6.11
2023-01-26T07:44:55.749Z,6.18
2023-01-26T07:45:58.889Z,5.90
2023-01-26T07:47:01.976Z,5.66
2023-01-26T07:48:04.890Z,5.92
2023-01-26T07:49:07.645Z,5.68
2023-01-26T07:50:10.647Z,5.79
2023-01-26T07:51:13.680Z,5.76
2023-01-26T07:52:16.429Z,5.98
2023-01-26T07:53:19.281Z,6.06
2023-01-26T07:54:21.871Z,5.84
2023-01-26T07:55:24.740Z,5.48
2023-01-26T07:56:27.636Z,5.92
2023-01-26T07:57:30.285Z,6.05
2023-01-26T07:58:33.279Z,5.55
2023-01-26T07:59:36.255Z,5.22
2023-01-26T08:00:38.925Z,5.81
2023-01-26T08:01:41.872Z,6.09
2023-01-26T08:02:44.746Z,5.18
2023-01-26T08:03:47.741Z,5.72
2023-01-26T08:04:50.727Z,5.88
2023-01-26T08:05:53.604Z,6.00
2023-01-26T08:06:56.478Z,6.02
2023-01-26T08:07:59.599Z,6.51
2023-01-26T08:09:02.723Z,7.51
2023-01-26T08:10:05.606Z,6.52
2023-01-26T08:11:08.797Z,5.86
2023-01-26T08:12:12.201Z,5.95
2023-01-26T08:13:18.979Z,5.05
2023-01-26T08:14:19.354Z,5.02
2023-01-26T08:15:22.226Z,5.05
2023-01-26T08:16:25.095Z,4.74
2023-01-26T08:17:28.184Z,5.12
2023-01-26T08:18:31.271Z,5.44
2023-01-26T08:19:34.136Z,5.34
2023-01-26T08:20:37.222Z,5.39
2023-01-26T08:21:40.102Z,5.57
2023-01-26T08:22:43.000Z,6.85
2023-01-26T08:23:45.737Z,8.96
2023-01-26T08:24:48.534Z,11.13
2023-01-26T08:25:51.210Z,8.76
2023-01-26T08:26:54.166Z,8.31
2023-01-26T08:27:57.038Z,8.06
2023-01-26T08:29:00.118Z,6.59
2023-01-26T08:30:03.099Z,6.78
2023-01-26T08:31:05.744Z,6.58
2023-01-26T08:32:09.029Z,6.08
2023-01-26T08:33:11.613Z,5.58
2023-01-26T08:34:14.493Z,5.57
2023-01-26T08:35:17.568Z,5.32
2023-01-26T08:36:22.531Z,5.26
2023-01-26T08:37:25.363Z,5.07
2023-01-26T08:38:28.131Z,5.51
2023-01-26T08:39:31.541Z,5.32
2023-01-26T08:40:34.700Z,5.55
2023-01-26T08:41:37.580Z,5.66
2023-01-26T08:42:40.447Z,5.82
2023-01-26T08:43:43.119Z,5.75
2023-01-26T08:44:46.005Z,6.12
2023-01-26T08:45:48.855Z,6.07
2023-01-26T08:46:51.645Z,6.82
2023-01-26T08:47:54.438Z,6.79
2023-01-26T08:48:59.354Z,6.75
2023-01-26T08:50:01.395Z,6.98
2023-01-26T08:51:04.172Z,7.73
2023-01-26T08:52:06.938Z,6.87
2023-01-26T08:53:09.923Z,7.16
2023-01-26T08:54:12.448Z,7.98
2023-01-26T08:55:14.802Z,7.65
2023-01-26T08:56:17.368Z,7.61
2023-01-26T08:57:19.870Z,7.22
2023-01-26T08:58:22.097Z,6.99
2023-01-26T08:59:24.422Z,7.17
2023-01-26T09:00:27.014Z,6.33
2023-01-26T09:01:29.728Z,7.48
2023-01-26T09:02:32.250Z,7.02
2023-01-26T09:03:34.858Z,6.42
2023-01-26T09:04:37.154Z,6.68
2023-01-26T09:05:39.565Z,6.75
2023-01-26T09:06:42.122Z,6.22
2023-01-26T09:07:44.665Z,5.79
2023-01-26T09:08:46.999Z,5.31
2023-01-26T09:09:49.348Z,5.07
2023-01-26T09:10:51.708Z,5.32
2023-01-26T09:11:54.051Z,5.97
2023-01-26T09:12:56.259Z,7.43
2023-01-26T09:13:58.556Z,7.85
2023-01-26T09:15:00.762Z,7.41
2023-01-26T09:16:03.186Z,7.85
2023-01-26T09:17:05.404Z,7.86
2023-01-26T09:18:07.645Z,8.22
2023-01-26T09:19:09.818Z,9.04
2023-01-26T09:20:12.680Z,8.65
2023-01-26T09:21:15.436Z,8.50
2023-01-26T09:22:17.991Z,9.88
2023-01-26T09:23:20.271Z,10.08
2023-01-26T09:24:22.573Z,9.01
2023-01-26T09:25:25.217Z,9.17
2023-01-26T09:26:27.723Z,9.83
2023-01-26T09:27:30.032Z,10.20
2023-01-26T09:28:32.347Z,9.34
2023-01-26T09:29:34.883Z,9.28
2023-01-26T09:30:37.551Z,9.36
2023-01-26T09:31:40.371Z,9.75
2023-01-26T09:32:42.678Z,10.53
2023-01-26T09:33:45.543Z,10.42
2023-01-26T09:34:48.179Z,9.93
2023-01-26T09:35:50.461Z,9.92
2023-01-26T09:36:53.354Z,9.77
2023-01-26T09:37:55.609Z,10.72
2023-01-26T09:38:58.262Z,10.70
2023-01-26T09:40:00.879Z,9.83
2023-01-26T09:41:03.585Z,9.55
2023-01-26T09:42:06.209Z,9.33
2023-01-26T09:43:08.499Z,9.52
2023-01-26T09:44:10.730Z,10.29
2023-01-26T09:45:13.463Z,9.88
2023-01-26T09:46:15.959Z,9.33
2023-01-26T09:47:18.468Z,9.24
2023-01-26T09:48:20.665Z,9.78
2023-01-26T09:49:22.878Z,8.68
2023-01-26T09:50:25.098Z,9.23
2023-01-26T09:51:27.314Z,9.33
2023-01-26T09:52:29.625Z,9.53
2023-01-26T09:53:31.862Z,9.93
2023-01-26T09:54:34.256Z,9.58
2023-01-26T09:55:36.960Z,9.08
2023-01-26T09:56:39.717Z,8.80
2023-01-26T09:57:42.009Z,8.83
2023-01-26T09:58:44.253Z,9.41
2023-01-26T09:59:46.603Z,9.03
2023-01-26T10:00:48.896Z,8.38
2023-01-26T10:01:51.141Z,8.78
2023-01-26T10:02:53.583Z,8.84
2023-01-26T10:03:56.313Z,8.73
2023-01-26T10:04:58.531Z,8.94
2023-01-26T10:06:00.867Z,8.85
2023-01-26T10:07:03.177Z,8.43
2023-01-26T10:08:05.766Z,8.21
2023-01-26T10:09:08.117Z,8.05
2023-01-26T10:10:10.435Z,8.26
2023-01-26T10:11:12.879Z,8.24
2023-01-26T10:12:15.553Z,8.58
2023-01-26T10:13:18.104Z,8.50
2023-01-26T10:14:20.537Z,9.14
2023-01-26T10:15:23.213Z,9.33
2023-01-26T10:16:25.712Z,9.43
2023-01-26T10:17:28.191Z,9.10
2023-01-26T10:18:30.651Z,8.87
2023-01-26T10:19:33.271Z,8.95
2023-01-26T10:20:35.827Z,8.55
2023-01-26T10:21:38.119Z,9.32
2023-01-26T10:22:40.316Z,9.79
2023-01-26T10:23:42.859Z,8.93
2023-01-26T10:24:45.550Z,8.36
2023-01-26T10:25:48.157Z,8.63
2023-01-26T10:26:50.700Z,8.78
2023-01-26T10:27:53.039Z,8.85
2023-01-26T10:28:55.470Z,8.01
2023-01-26T10:29:57.934Z,9.10
2023-01-26T10:31:00.499Z,8.22
2023-01-26T10:32:02.872Z,8.47
2023-01-26T10:33:05.335Z,8.88
2023-01-26T10:34:08.009Z,8.91
2023-01-26T10:35:10.926Z,9.78
2023-01-26T10:36:13.678Z,10.97
2023-01-26T10:37:16.374Z,12.32
2023-01-26T10:38:18.871Z,12.54
2023-01-26T10:39:21.461Z,13.41
2023-01-26T10:40:23.663Z,14.70
2023-01-26T10:41:26.359Z,14.08
2023-01-26T10:42:28.921Z,14.06
2023-01-26T10:43:31.489Z,14.41
2023-01-26T10:44:33.754Z,14.63
2023-01-26T10:45:36.372Z,16.51
2023-01-26T10:46:38.994Z,15.73
2023-01-26T10:47:41.647Z,17.03
2023-01-26T10:48:44.240Z,15.38
2023-01-26T10:49:46.619Z,17.18
2023-01-26T10:50:48.957Z,16.56
2023-01-26T10:51:51.639Z,16.77
2023-01-26T10:52:55.192Z,15.95
2023-01-26T10:53:57.496Z,16.48
2023-01-26T10:54:59.754Z,17.16
2023-01-26T10:56:02.103Z,15.90
2023-01-26T10:57:04.506Z,17.94
2023-01-26T10:58:06.787Z,16.05
2023-01-26T10:59:09.060Z,16.84
2023-01-26T11:00:11.417Z,17.98
2023-01-26T11:01:13.777Z,17.52
2023-01-26T11:02:16.140Z,16.62
2023-01-26T11:03:18.333Z,15.09
2023-01-26T11:04:20.538Z,16.33
2023-01-26T11:05:22.964Z,15.49
2023-01-26T11:06:25.285Z,15.08
2023-01-26T11:07:27.520Z,14.64
2023-01-26T11:08:29.784Z,14.58
2023-01-26T11:09:32.039Z,14.55
2023-01-26T11:10:34.416Z,14.48
2023-01-26T11:11:36.887Z,13.84
2023-01-26T11:12:39.294Z,14.15
2023-01-26T11:13:41.667Z,14.06
2023-01-26T11:14:43.954Z,14.10
2023-01-26T11:15:46.214Z,15.46
2023-01-26T11:16:48.590Z,15.85
2023-01-26T11:17:50.832Z,14.15
2023-01-26T11:18:53.109Z,12.64
2023-01-26T11:19:55.367Z,15.33
2023-01-26T11:20:57.688Z,15.23
2023-01-26T11:21:59.929Z,15.31
2023-01-26T11:23:02.171Z,14.04
2023-01-26T11:24:04.484Z,13.77
2023-01-26T11:25:06.740Z,15.74
2023-01-26T11:26:09.392Z,15.46
2023-01-26T11:27:11.927Z,14.56
2023-01-26T11:28:14.178Z,15.08
2023-01-26T11:29:16.436Z,14.85
2023-01-26T11:30:18.944Z,15.92
2023-01-26T11:31:21.511Z,15.87
2023-01-26T11:32:23.796Z,16.32
2023-01-26T11:33:26.151Z,15.53
2023-01-26T11:34:28.620Z,15.21
2023-01-26T11:35:30.939Z,15.92
2023-01-26T11:36:33.644Z,15.12
2023-01-26T11:37:35.908Z,14.42
2023-01-26T11:38:38.233Z,16.23
2023-01-26T11:39:40.794Z,16.12
2023-01-26T11:40:43.059Z,16.95
2023-01-26T11:41:45.738Z,15.89
2023-01-26T11:42:48.250Z,16.27
2023-01-26T11:43:50.827Z,16.30
2023-01-26T11:44:53.157Z,16.07
2023-01-26T11:45:57.162Z,17.29
2023-01-26T11:46:59.615Z,17.45
2023-01-26T11:48:01.969Z,17.02
2023-01-26T11:49:04.256Z,15.98
2023-01-26T11:50:06.548Z,15.24
2023-01-26T11:51:08.783Z,14.77
2023-01-26T11:52:11.364Z,16.27
2023-01-26T11:53:13.512Z,17.00
2023-01-26T11:54:16.080Z,16.15
2023-01-26T11:55:18.664Z,16.58
2023-01-26T11:56:21.242Z,16.39
2023-01-26T11:57:23.715Z,15.40
2023-01-26T11:58:26.164Z,15.35
2023-01-26T11:59:28.689Z,15.63
2023-01-26T12:00:34.260Z,15.17
2023-01-26T12:01:36.488Z,14.95
2023-01-26T12:02:39.388Z,15.18
2023-01-26T12:03:41.715Z,14.41
2023-01-26T12:04:44.311Z,13.03
2023-01-26T12:05:46.781Z,13.76
2023-01-26T12:06:49.056Z,14.98
2023-01-26T12:07:51.718Z,14.92
2023-01-26T12:08:54.304Z,15.72
2023-01-26T12:09:56.917Z,15.62
2023-01-26T12:10:59.161Z,13.82
2023-01-26T12:12:01.547Z,14.70
2023-01-26T12:13:04.340Z,14.78
2023-01-26T12:14:06.592Z,14.48
2023-01-26T12:15:08.968Z,14.33
2023-01-26T12:16:11.578Z,14.62
2023-01-26T12:17:18.470Z,14.21
2023-01-26T12:18:18.369Z,14.19
2023-01-26T12:19:20.835Z,14.50
2023-01-26T12:20:23.398Z,14.42
2023-01-26T12:21:25.711Z,14.15
2023-01-26T12:22:27.953Z,15.01
2023-01-26T12:23:30.649Z,13.72
2023-01-26T12:25:01.010Z,14.63
2023-01-26T12:25:37.615Z,14.34
2023-01-26T12:26:40.253Z,14.37
2023-01-26T12:27:42.753Z,13.51
2023-01-26T12:28:45.445Z,13.57
2023-01-26T12:29:48.149Z,13.93
2023-01-26T12:30:50.795Z,14.15
2023-01-26T12:31:53.080Z,13.82
2023-01-26T12:32:55.564Z,13.65
2023-01-26T12:33:58.305Z,13.51
2023-01-26T12:35:00.876Z,13.80
2023-01-26T12:36:03.073Z,13.66
2023-01-26T12:37:05.264Z,13.78
2023-01-26T12:38:17.639Z,13.93
2023-01-26T12:39:11.848Z,13.82
2023-01-26T12:40:14.123Z,14.08
2023-01-26T12:41:16.431Z,13.29
2023-01-26T12:42:18.723Z,13.34
2023-01-26T12:43:21.270Z,14.29
2023-01-26T12:44:23.829Z,13.24
2023-01-26T12:45:26.109Z,13.10
2023-01-26T12:46:28.482Z,12.18
2023-01-26T12:47:30.782Z,13.77
2023-01-26T12:48:33.161Z,12.26
2023-01-26T12:49:35.797Z,12.65
2023-01-26T12:50:38.207Z,13.40
2023-01-26T12:51:40.381Z,12.41
2023-01-26T12:52:42.584Z,12.56
2023-01-26T12:53:45.039Z,12.78
2023-01-26T12:54:47.662Z,12.30
2023-01-26T12:55:50.097Z,12.42
2023-01-26T12:56:52.423Z,12.58
2023-01-26T12:57:54.706Z,12.07
2023-01-26T12:58:57.272Z,11.65
2023-01-26T12:59:59.787Z,11.82
2023-01-26T13:01:02.294Z,11.68
2023-01-26T13:02:04.643Z,12.07
2023-01-26T13:03:07.010Z,11.33
2023-01-26T13:04:09.451Z,11.68
2023-01-26T13:05:12.415Z,11.75
2023-01-26T13:06:14.625Z,11.61
2023-01-26T13:07:16.913Z,11.51
2023-01-26T13:08:19.122Z,10.97
2023-01-26T13:09:21.581Z,11.35
2023-01-26T13:10:24.028Z,11.18
2023-01-26T13:11:26.453Z,11.47
2023-01-26T13:12:28.804Z,10.82
2023-01-26T13:13:31.078Z,11.03
2023-01-26T13:14:33.743Z,12.05
2023-01-26T13:15:36.399Z,12.54
2023-01-26T13:16:39.021Z,10.91
2023-01-26T13:17:41.341Z,11.33
2023-01-26T13:18:43.768Z,10.97
2023-01-26T13:19:46.361Z,10.82
2023-01-26T13:20:49.039Z,10.35
2023-01-26T13:21:51.325Z,10.49
2023-01-26T13:22:53.553Z,10.71
2023-01-26T13:23:55.918Z,11.58
2023-01-26T13:24:58.462Z,10.60
2023-01-26T13:26:09.559Z,10.85
2023-01-26T13:27:05.235Z,10.94
2023-01-26T13:28:07.519Z,10.90
2023-01-26T13:29:10.019Z,10.80
2023-01-26T13:30:12.786Z,11.09
2023-01-26T13:31:15.768Z,10.58
2023-01-26T13:32:18.095Z,11.32
2023-01-26T13:33:20.318Z,11.01
2023-01-26T13:34:22.579Z,10.68
2023-01-26T13:35:25.157Z,10.78
2023-01-26T13:36:27.569Z,10.79
2023-01-26T13:37:29.934Z,10.89
2023-01-26T13:38:32.313Z,11.61
2023-01-26T13:39:34.478Z,10.65
2023-01-26T13:40:36.740Z,9.96
2023-01-26T13:41:39.079Z,9.97
2023-01-26T13:42:41.471Z,10.26
2023-01-26T13:43:44.063Z,10.07